Time;durP1;ratioP1;P1;durP2;ratioP2;P2;SDS_P1;SDS_P2;PMS_P1;PMS_P2;Temp;Humidity;BMP_temperature;BMP_pressure;BME280_temperature;BME280_humidity;BME280_pressure;Samples;Min_cycle;Max_cycle;Signal;HPM_P1;HPM_P2
2023/05/07 00:00:18;;;;;;;1.60;1.45;;;19.70;61.50;;;;;;4956474;28;20197;-68
2023/05/07 00:02:45;;;;;;;1.20;1.20;;;19.70;61.50;;;;;;4956078;28;20189;-67
2023/05/07 00:05:11;;;;;;;1.40;1.30;;;19.70;61.50;;;;;;4955980;28;20219;-68
2023/05/07 00:07:37;;;;;;;1.55;1.30;;;19.70;61.50;;;;;;4956387;28;20252;-67
2023/05/07 00:10:06;;;;;;;1.55;1.38;;;19.70;61.50;;;;;;4956004;28;20217;-67
2023/05/07 00:12:35;;;;;;;2.30;1.50;;;19.70;61.50;;;;;;4955923;28;20236;-68
2023/05/07 00:15:03;;;;;;;2.72;1.20;;;19.70;61.50;;;;;;4955934;28;20724;-67
2023/05/07 00:17:30;;;;;;;1.45;1.35;;;19.70;61.50;;;;;;4972046;28;20194;-67
2023/05/07 00:19:56;;;;;;;1.50;1.40;;;19.70;61.50;;;;;;4948243;28;20256;-67
2023/05/07 00:22:21;;;;;;;1.60;1.50;;;19.60;61.30;;;;;;4956151;28;20197;-67
2023/05/07 00:24:47;;;;;;;1.50;1.40;;;19.70;61.50;;;;;;4939569;28;20209;-66
2023/05/07 00:27:13;;;;;;;1.33;1.25;;;19.70;61.50;;;;;;4973265;28;20577;-68
2023/05/07 00:29:39;;;;;;;1.58;1.48;;;19.70;61.50;;;;;;4971887;28;20704;-67
2023/05/07 00:32:05;;;;;;;1.50;1.40;;;19.60;61.40;;;;;;4972266;28;20202;-67
2023/05/07 00:34:30;;;;;;;2.35;1.40;;;19.70;61.40;;;;;;4971243;28;20201;-67
2023/05/07 00:36:56;;;;;;;1.60;1.50;;;19.60;61.30;;;;;;4960541;28;20186;-68
2023/05/07 00:39:22;;;;;;;1.85;1.60;;;19.70;61.50;;;;;;4951056;28;20204;-67
2023/05/07 00:41:47;;;;;;;1.27;1.17;;;19.60;61.40;;;;;;4955986;28;20197;-68
2023/05/07 00:44:14;;;;;;;1.50;1.40;;;19.70;61.40;;;;;;4939789;28;20582;-67
2023/05/07 00:46:40;;;;;;;1.23;1.23;;;19.60;61.30;;;;;;4968887;28;20216;-68
2023/05/07 00:49:07;;;;;;;1.52;1.42;;;19.70;61.40;;;;;;4975195;28;20205;-67
2023/05/07 00:51:33;;;;;;;1.50;1.40;;;19.60;61.30;;;;;;4959597;28;20198;-67
2023/05/07 00:54:02;;;;;;;1.30;1.20;;;19.60;61.30;;;;;;4959694;28;20293;-67
2023/05/07 00:56:28;;;;;;;1.50;1.40;;;19.60;61.30;;;;;;4976725;28;20260;-67
2023/05/07 00:58:55;;;;;;;1.67;1.50;;;19.60;61.30;;;;;;4967717;28;20192;-68
2023/05/07 01:01:21;;;;;;;1.40;1.30;;;19.60;61.30;;;;;;4943482;28;20190;-67
2023/05/07 01:03:47;;;;;;;1.48;1.38;;;19.60;61.30;;;;;;4976545;28;20182;-68
2023/05/07 01:06:16;;;;;;;2.10;1.67;;;19.60;61.40;;;;;;4959223;28;20193;-67
2023/05/07 01:08:42;;;;;;;1.20;1.10;;;19.60;61.30;;;;;;4959310;28;20205;-67
2023/05/07 01:11:10;;;;;;;1.30;1.20;;;19.60;61.40;;;;;;4975416;28;20244;-68
2023/05/07 01:13:37;;;;;;;1.67;1.42;;;19.60;61.30;;;;;;4943373;28;20186;-68
2023/05/07 01:16:05;;;;;;;2.15;1.35;;;19.60;61.40;;;;;;4967159;28;20225;-67
2023/05/07 01:18:30;;;;;;;1.50;1.30;;;19.60;61.30;;;;;;4991887;28;20276;-68
2023/05/07 01:20:59;;;;;;;1.73;1.63;;;19.60;61.40;;;;;;4959257;28;20280;-67
2023/05/07 01:23:28;;;;;;;2.08;1.35;;;19.60;61.30;;;;;;4975298;28;20189;-67
2023/05/07 01:25:54;;;;;;;1.40;1.30;;;19.60;61.40;;;;;;4958890;28;20201;-68
2023/05/07 01:28:22;;;;;;;1.80;1.70;;;19.60;61.40;;;;;;4959051;28;20196;-67
2023/05/07 01:30:59;;;;;;;1.27;1.20;;;19.60;61.40;;;;;;4958922;28;20253;-68
2023/05/07 01:33:31;;;;;;;1.33;1.23;;;19.60;61.40;;;;;;4959212;28;20212;-67
2023/05/07 01:36:01;;;;;;;1.40;1.30;;;19.60;61.40;;;;;;4958577;28;20245;-67
2023/05/07 01:38:28;;;;;;;1.60;1.50;;;19.60;61.40;;;;;;4958857;28;20193;-68
2023/05/07 01:40:55;;;;;;;1.40;1.30;;;19.60;61.40;;;;;;4958880;28;20185;-67
2023/05/07 01:43:21;;;;;;;1.52;1.42;;;19.60;61.40;;;;;;4959039;28;20189;-67
2023/05/07 01:45:48;;;;;;;1.40;1.30;;;19.60;61.40;;;;;;4958313;28;20292;-68
2023/05/07 01:48:15;;;;;;;1.77;1.60;;;19.60;61.40;;;;;;4943044;28;20288;-67
2023/05/07 01:50:43;;;;;;;1.60;1.50;;;19.60;61.40;;;;;;4958827;28;20236;-67
2023/05/07 01:53:08;;;;;;;1.88;1.77;;;19.60;61.40;;;;;;4958964;28;20186;-67
2023/05/07 01:55:36;;;;;;;1.50;1.40;;;19.60;61.50;;;;;;4958234;28;20224;-67
2023/05/07 01:58:04;;;;;;;1.40;1.30;;;19.60;61.50;;;;;;4942484;28;20189;-67
2023/05/07 02:00:30;;;;;;;1.60;1.48;;;19.60;61.50;;;;;;4958545;28;20196;-68
2023/05/07 02:02:56;;;;;;;1.40;1.30;;;19.60;61.50;;;;;;4958371;28;20200;-67
2023/05/07 02:05:30;;;;;;;1.65;1.55;;;19.60;61.50;;;;;;4958196;28;20205;-67
2023/05/07 02:08:15;;;;;;;1.40;1.30;;;19.60;61.50;;;;;;4961307;28;20197;-67
2023/05/07 02:10:41;;;;;;;1.85;1.70;;;19.60;61.40;;;;;;4958089;28;20296;-67
2023/05/07 02:13:07;;;;;;;1.65;1.55;;;19.60;61.50;;;;;;4958210;28;20186;-68
2023/05/07 02:15:33;;;;;;;1.60;1.50;;;19.60;61.40;;;;;;4942377;28;20198;-68
2023/05/07 02:18:04;;;;;;;1.83;1.73;;;19.60;61.50;;;;;;4942719;28;20216;-67
2023/05/07 02:20:30;;;;;;;1.50;1.40;;;19.60;61.50;;;;;;4954870;28;20190;-68
2023/05/07 02:22:56;;;;;;;1.40;1.30;;;19.60;61.40;;;;;;4957094;28;20182;-68
2023/05/07 02:25:22;;;;;;;1.40;1.30;;;19.60;61.50;;;;;;4974094;28;20304;-67
2023/05/07 02:27:48;;;;;;;2.20;1.70;;;19.60;61.50;;;;;;4942030;28;20273;-67
2023/05/07 02:30:15;;;;;;;2.05;1.60;;;19.60;61.60;;;;;;4957725;28;20209;-68
2023/05/07 02:32:41;;;;;;;1.75;1.48;;;19.60;61.50;;;;;;4974217;28;20276;-67
2023/05/07 02:35:07;;;;;;;2.15;1.50;;;19.60;61.50;;;;;;4970415;28;20346;-68
2023/05/07 02:37:33;;;;;;;1.70;1.45;;;19.60;61.60;;;;;;4953613;28;20197;-69
2023/05/07 02:39:59;;;;;;;1.65;1.55;;;19.60;61.50;;;;;;4957817;28;20189;-67
2023/05/07 02:42:25;;;;;;;1.88;1.77;;;19.60;61.50;;;;;;4957860;28;20344;-67
2023/05/07 02:44:50;;;;;;;1.65;1.55;;;19.60;61.50;;;;;;4957216;28;20209;-67
2023/05/07 02:47:17;;;;;;;1.70;1.40;;;19.60;61.50;;;;;;4957623;28;20244;-67
2023/05/07 02:49:44;;;;;;;1.85;1.73;;;19.60;61.60;;;;;;4957312;28;20205;-67
2023/05/07 02:52:09;;;;;;;1.65;1.55;;;19.60;61.60;;;;;;4957660;28;20200;-68
2023/05/07 02:54:35;;;;;;;1.50;1.40;;;19.60;61.50;;;;;;4957400;28;20217;-67
2023/05/07 02:57:01;;;;;;;1.50;1.40;;;19.60;61.50;;;;;;4941175;28;20705;-68
2023/05/07 02:59:27;;;;;;;1.95;1.85;;;19.60;61.50;;;;;;4941306;28;20186;-67
2023/05/07 03:01:53;;;;;;;1.73;1.63;;;19.60;61.50;;;;;;4965196;28;20569;-67
2023/05/07 03:04:20;;;;;;;1.55;1.45;;;19.60;61.80;;;;;;4957491;28;20206;-67
2023/05/07 03:06:46;;;;;;;1.60;1.50;;;19.60;61.50;;;;;;4957024;28;20189;-67
2023/05/07 03:09:12;;;;;;;1.80;1.70;;;19.60;61.50;;;;;;4941454;28;20220;-67
2023/05/07 03:11:38;;;;;;;2.28;1.80;;;19.50;61.50;;;;;;4941036;28;20194;-67
2023/05/07 03:14:04;;;;;;;2.25;1.63;;;19.60;61.50;;;;;;4956781;28;20197;-68
2023/05/07 03:16:30;;;;;;;2.28;1.48;;;19.50;61.40;;;;;;4940987;28;20182;-67
2023/05/07 03:18:56;;;;;;;1.40;1.30;;;19.60;61.50;;;;;;4949224;28;20193;-67
2023/05/07 03:21:22;;;;;;;1.45;1.35;;;19.50;61.40;;;;;;4956798;28;20197;-68
2023/05/07 03:23:48;;;;;;;1.92;1.80;;;19.50;61.40;;;;;;4988968;28;20193;-67
2023/05/07 03:26:13;;;;;;;1.73;1.63;;;19.50;61.40;;;;;;4969763;28;20257;-67
2023/05/07 03:28:40;;;;;;;1.88;1.77;;;19.50;61.40;;;;;;4953186;28;20182;-67
2023/05/07 03:31:10;;;;;;;1.70;1.60;;;19.50;61.40;;;;;;4972718;28;20194;-68
2023/05/07 03:33:53;;;;;;;1.73;1.63;;;19.50;61.40;;;;;;4956603;28;20186;-67
2023/05/07 03:36:20;;;;;;;1.75;1.65;;;19.50;61.50;;;;;;4934223;28;20185;-67
2023/05/07 03:38:47;;;;;;;1.92;1.77;;;19.50;62.20;;;;;;4940532;28;20190;-67
2023/05/07 03:41:16;;;;;;;1.52;1.42;;;19.50;61.40;;;;;;4941337;28;20209;-67
2023/05/07 03:43:44;;;;;;;1.80;1.70;;;19.50;61.40;;;;;;4956249;28;20570;-67
2023/05/07 03:46:11;;;;;;;1.75;1.65;;;19.50;61.40;;;;;;4956462;28;20236;-67
2023/05/07 03:48:37;;;;;;;1.48;1.38;;;19.50;61.40;;;;;;4956228;28;20186;-67
2023/05/07 03:51:04;;;;;;;1.48;1.38;;;19.50;61.40;;;;;;4940690;28;20202;-68
2023/05/07 03:53:32;;;;;;;1.80;1.70;;;19.50;61.40;;;;;;4956340;28;20645;-67
2023/05/07 03:55:58;;;;;;;1.70;1.60;;;19.50;61.40;;;;;;4956161;28;20220;-68
2023/05/07 03:58:23;;;;;;;1.90;1.63;;;19.50;61.40;;;;;;4956566;28;20192;-67
2023/05/07 04:00:50;;;;;;;1.65;1.55;;;19.50;61.30;;;;;;4972483;28;20190;-67
2023/05/07 04:03:24;;;;;;;1.63;1.52;;;19.50;61.40;;;;;;4969141;28;20178;-68
2023/05/07 04:05:51;;;;;;;1.90;1.75;;;19.50;61.40;;;;;;4953521;28;20212;-67
2023/05/07 04:08:17;;;;;;;1.80;1.70;;;19.50;61.40;;;;;;4956217;28;20193;-67
2023/05/07 04:10:47;;;;;;;1.85;1.50;;;19.50;61.30;;;;;;4940541;28;20201;-67
2023/05/07 04:13:13;;;;;;;1.83;1.73;;;19.50;61.40;;;;;;4956313;28;20190;-67
2023/05/07 04:15:39;;;;;;;1.98;1.75;;;19.50;61.40;;;;;;4956131;28;20213;-67
2023/05/07 04:18:08;;;;;;;2.10;1.90;;;19.50;61.40;;;;;;4956331;28;20186;-67
2023/05/07 04:20:36;;;;;;;1.55;1.45;;;19.50;61.40;;;;;;4956088;28;20288;-67
2023/05/07 04:23:03;;;;;;;1.60;1.50;;;19.50;61.40;;;;;;4939401;28;20240;-67
2023/05/07 04:25:30;;;;;;;1.70;1.60;;;19.50;61.40;;;;;;4939873;28;20209;-68
2023/05/07 04:28:03;;;;;;;2.00;1.80;;;19.50;61.40;;;;;;4955858;28;20194;-67
2023/05/07 04:30:29;;;;;;;1.60;1.50;;;19.50;61.40;;;;;;4955771;28;20206;-67
2023/05/07 04:32:56;;;;;;;1.95;1.80;;;19.50;61.40;;;;;;4955816;28;20251;-67
2023/05/07 04:35:23;;;;;;;2.08;1.60;;;19.50;61.40;;;;;;4956041;28;20201;-67
2023/05/07 04:37:49;;;;;;;1.40;1.30;;;19.50;61.30;;;;;;4955778;28;20240;-67
2023/05/07 04:40:15;;;;;;;1.50;1.40;;;19.50;61.40;;;;;;4956163;28;20189;-68
2023/05/07 04:42:42;;;;;;;1.60;1.50;;;19.50;61.40;;;;;;4955819;28;20192;-68
2023/05/07 04:45:10;;;;;;;1.60;1.50;;;19.50;61.40;;;;;;4939802;28;20205;-67
2023/05/07 04:47:37;;;;;;;1.60;1.50;;;19.50;61.40;;;;;;4955777;28;20804;-68
2023/05/07 04:50:03;;;;;;;1.50;1.40;;;19.50;61.40;;;;;;4955688;28;20216;-67
2023/05/07 04:52:28;;;;;;;1.90;1.80;;;19.50;61.40;;;;;;4968256;28;20186;-67
2023/05/07 04:54:54;;;;;;;1.40;1.30;;;19.50;61.40;;;;;;4953065;28;20246;-67
2023/05/07 04:57:20;;;;;;;1.52;1.42;;;19.50;61.40;;;;;;4939733;28;20182;-67
2023/05/07 04:59:47;;;;;;;1.77;1.42;;;19.50;61.40;;;;;;4955964;28;20192;-68
2023/05/07 05:02:13;;;;;;;1.70;1.60;;;19.50;61.50;;;;;;4955878;28;20182;-67
2023/05/07 05:04:39;;;;;;;1.88;1.77;;;19.50;61.50;;;;;;4968341;28;20233;-67
2023/05/07 05:07:06;;;;;;;1.67;1.58;;;19.50;61.50;;;;;;4970684;28;20256;-67
2023/05/07 05:09:31;;;;;;;1.60;1.50;;;19.50;61.50;;;;;;4955547;28;20209;-67
2023/05/07 05:11:57;;;;;;;1.90;1.70;;;19.50;61.50;;;;;;4955223;28;20221;-67
2023/05/07 05:14:23;;;;;;;1.55;1.45;;;19.50;61.50;;;;;;4939517;28;20256;-67
2023/05/07 05:16:50;;;;;;;1.65;1.55;;;19.50;61.50;;;;;;4955187;28;20252;-66
2023/05/07 05:19:16;;;;;;;1.65;1.55;;;19.50;61.50;;;;;;4955842;28;20197;-68
2023/05/07 05:21:43;;;;;;;1.52;1.42;;;19.50;61.50;;;;;;4968195;28;20186;-67
2023/05/07 05:24:10;;;;;;;1.70;1.60;;;19.40;61.40;;;;;;4955097;28;20680;-67
2023/05/07 05:26:36;;;;;;;1.50;1.40;;;19.50;61.50;;;;;;4955416;28;20197;-67
2023/05/07 05:29:02;;;;;;;1.52;1.42;;;19.50;61.50;;;;;;4971172;28;20213;-67
2023/05/07 05:31:30;;;;;;;2.58;1.60;;;19.50;61.50;;;;;;4955252;28;20181;-68
2023/05/07 05:33:55;;;;;;;1.70;1.60;;;19.50;61.50;;;;;;4957177;28;20201;-68
2023/05/07 05:36:22;;;;;;;1.50;1.40;;;19.50;61.50;;;;;;4991010;28;20189;-67
2023/05/07 05:38:50;;;;;;;1.83;1.73;;;19.50;61.50;;;;;;4990883;28;20190;-68
2023/05/07 05:41:16;;;;;;;1.50;1.40;;;19.50;61.50;;;;;;4971588;28;20201;-67
2023/05/07 05:43:41;;;;;;;1.70;1.60;;;19.50;61.50;;;;;;4954377;28;20190;-67
2023/05/07 05:46:09;;;;;;;1.77;1.67;;;19.50;61.60;;;;;;4975492;28;20210;-68
2023/05/07 05:48:35;;;;;;;1.95;1.85;;;19.50;61.50;;;;;;4991043;28;20197;-67
2023/05/07 05:51:02;;;;;;;1.65;1.55;;;19.50;61.60;;;;;;4974913;28;20194;-67
2023/05/07 05:53:28;;;;;;;1.95;1.85;;;19.50;61.50;;;;;;4958363;28;20182;-68
2023/05/07 05:55:54;;;;;;;1.48;1.38;;;19.50;61.50;;;;;;4958285;28;20209;-67
2023/05/07 05:58:20;;;;;;;1.77;1.65;;;19.40;61.50;;;;;;4958551;28;20276;-67
2023/05/07 06:00:53;;;;;;;1.85;1.75;;;19.50;61.60;;;;;;4943172;28;20272;-67
2023/05/07 06:03:20;;;;;;;1.90;1.63;;;19.40;61.50;;;;;;4942729;28;20230;-68
2023/05/07 06:05:47;;;;;;;1.92;1.70;;;19.50;61.70;;;;;;4942480;28;20208;-68
2023/05/07 06:08:13;;;;;;;1.45;1.38;;;19.40;61.50;;;;;;4958164;28;20243;-68
2023/05/07 06:10:40;;;;;;;1.48;1.38;;;19.40;61.50;;;;;;4942467;28;20281;-68
2023/05/07 06:13:07;;;;;;;2.28;1.80;;;19.40;61.70;;;;;;4958308;28;20657;-67
2023/05/07 06:15:35;;;;;;;1.63;1.52;;;19.50;61.70;;;;;;4942127;28;20206;-68
2023/05/07 06:18:06;;;;;;;1.65;1.55;;;19.40;61.60;;;;;;4943118;28;20204;-67
2023/05/07 06:20:31;;;;;;;1.50;1.40;;;19.50;61.80;;;;;;4958332;28;20190;-68
2023/05/07 06:22:59;;;;;;;1.77;1.67;;;19.50;61.70;;;;;;4942084;28;20248;-67
2023/05/07 06:25:25;;;;;;;1.80;1.70;;;19.50;61.80;;;;;;4957785;28;20213;-67
2023/05/07 06:27:51;;;;;;;2.38;1.90;;;19.50;61.80;;;;;;4941842;28;20223;-67
2023/05/07 06:30:16;;;;;;;1.80;1.70;;;19.50;61.80;;;;;;4957534;28;20273;-69
2023/05/07 06:32:42;;;;;;;1.50;1.40;;;19.40;61.70;;;;;;4957682;28;20193;-67
2023/05/07 06:35:09;;;;;;;1.55;1.40;;;19.40;61.70;;;;;;4957669;28;20269;-67
2023/05/07 06:37:38;;;;;;;1.88;1.77;;;19.40;61.80;;;;;;4942159;28;20193;-68
2023/05/07 06:40:09;;;;;;;1.95;1.85;;;19.50;61.90;;;;;;4957845;28;20193;-67
2023/05/07 06:42:37;;;;;;;2.08;1.85;;;19.50;61.80;;;;;;4957554;28;20540;-67
2023/05/07 06:45:21;;;;;;;1.80;1.70;;;19.50;61.80;;;;;;4956939;28;20206;-67
2023/05/07 06:47:47;;;;;;;2.47;2.08;;;19.50;61.90;;;;;;4973533;28;20700;-67
2023/05/07 06:50:15;;;;;;;1.95;1.85;;;19.50;61.90;;;;;;4982452;28;20213;-67
2023/05/07 06:52:43;;;;;;;2.15;1.95;;;19.40;61.80;;;;;;4975092;28;20195;-67
2023/05/07 06:55:09;;;;;;;1.85;1.70;;;19.50;62.00;;;;;;4956160;28;20245;-66
2023/05/07 06:57:35;;;;;;;2.33;1.70;;;19.50;62.00;;;;;;4973506;28;20182;-67
2023/05/07 07:00:01;;;;;;;2.38;1.75;;;19.50;62.00;;;;;;4957182;28;20251;-67
2023/05/07 07:02:26;;;;;;;2.15;2.05;;;19.50;61.90;;;;;;4940675;28;20264;-68
2023/05/07 07:04:52;;;;;;;1.73;1.60;;;19.50;62.00;;;;;;4971125;28;20217;-68
2023/05/07 07:07:19;;;;;;;1.80;1.70;;;19.50;62.10;;;;;;4956335;28;20676;-67
2023/05/07 07:09:46;;;;;;;1.73;1.63;;;19.40;61.90;;;;;;4956871;28;20213;-67
2023/05/07 07:12:15;;;;;;;1.98;1.88;;;19.50;62.10;;;;;;4956473;28;20289;-67
2023/05/07 07:14:42;;;;;;;1.90;1.80;;;19.50;62.10;;;;;;4956439;28;20205;-67
2023/05/07 07:17:08;;;;;;;1.80;1.70;;;19.50;62.00;;;;;;4956380;28;20203;-67
2023/05/07 07:19:33;;;;;;;2.58;2.22;;;19.50;61.90;;;;;;4956562;28;20189;-68
2023/05/07 07:22:01;;;;;;;2.55;1.83;;;19.50;61.90;;;;;;4941227;28;20193;-67
2023/05/07 07:24:27;;;;;;;1.88;1.77;;;19.60;61.90;;;;;;4969720;28;20209;-67
2023/05/07 07:26:57;;;;;;;2.08;1.98;;;19.60;61.80;;;;;;4953658;28;20190;-68
2023/05/07 07:29:26;;;;;;;2.15;1.85;;;19.60;61.70;;;;;;4956981;28;20212;-68
2023/05/07 07:31:52;;;;;;;2.25;2.15;;;19.70;62.10;;;;;;4956460;28;20236;-68
2023/05/07 07:34:19;;;;;;;2.00;1.77;;;19.70;62.10;;;;;;4956217;28;20204;-68
2023/05/07 07:36:45;;;;;;;2.22;2.03;;;19.70;62.00;;;;;;4940323;28;20190;-68
2023/05/07 07:39:11;;;;;;;3.45;2.25;;;19.70;62.00;;;;;;4956724;28;20251;-68
2023/05/07 07:41:37;;;;;;;2.40;2.20;;;19.70;62.00;;;;;;4956955;28;20204;-68
2023/05/07 07:44:06;;;;;;;2.22;2.13;;;19.70;62.00;;;;;;4956195;28;20181;-68
2023/05/07 07:46:34;;;;;;;2.53;2.15;;;19.70;62.10;;;;;;4969162;28;20186;-68
2023/05/07 07:49:00;;;;;;;2.53;2.33;;;19.80;62.10;;;;;;4956311;28;20252;-68
2023/05/07 07:51:27;;;;;;;2.00;1.90;;;19.80;62.10;;;;;;4940701;28;20189;-68
2023/05/07 07:53:53;;;;;;;2.22;2.03;;;19.80;62.20;;;;;;4956081;28;20178;-67
2023/05/07 07:56:19;;;;;;;2.45;2.00;;;19.80;62.10;;;;;;4972343;28;20665;-68
2023/05/07 07:58:45;;;;;;;2.50;2.00;;;19.80;62.00;;;;;;4940548;28;20268;-68
2023/05/07 08:01:12;;;;;;;2.13;1.92;;;19.90;62.20;;;;;;4955067;28;20186;-69
2023/05/07 08:03:38;;;;;;;2.08;1.85;;;19.90;62.00;;;;;;4940555;28;20184;-68
2023/05/07 08:06:04;;;;;;;1.80;1.70;;;19.90;62.00;;;;;;4955946;28;20205;-67
2023/05/07 08:08:33;;;;;;;2.10;1.80;;;19.90;62.00;;;;;;4956066;28;20181;-66
2023/05/07 08:10:59;;;;;;;1.80;1.70;;;19.90;62.00;;;;;;4955812;28;20681;-65
2023/05/07 08:13:30;;;;;;;2.28;2.03;;;19.90;62.00;;;;;;4956142;28;20185;-67
2023/05/07 08:15:55;;;;;;;2.20;2.00;;;19.90;62.20;;;;;;4956009;28;20201;-68
2023/05/07 08:18:23;;;;;;;1.75;1.65;;;19.90;62.20;;;;;;4939712;28;20669;-67
2023/05/07 08:20:49;;;;;;;2.05;1.90;;;19.90;62.10;;;;;;4972378;28;20195;-67
2023/05/07 08:23:19;;;;;;;1.95;1.63;;;19.90;62.20;;;;;;4987976;28;20193;-67
2023/05/07 08:25:45;;;;;;;1.75;1.65;;;19.90;62.20;;;;;;4940087;28;20209;-67
2023/05/07 08:28:13;;;;;;;1.98;1.77;;;20.00;62.30;;;;;;4956119;28;20213;-67
2023/05/07 08:30:40;;;;;;;2.05;1.90;;;19.90;62.30;;;;;;4939920;28;20237;-68
2023/05/07 08:33:08;;;;;;;2.97;1.63;;;19.90;62.20;;;;;;4955881;28;20185;-66
2023/05/07 08:35:34;;;;;;;2.45;1.92;;;19.90;63.10;;;;;;4940019;28;20205;-67
2023/05/07 08:38:00;;;;;;;2.45;1.75;;;20.00;62.40;;;;;;4971920;28;20194;-67
2023/05/07 08:40:27;;;;;;;2.40;1.80;;;20.00;62.30;;;;;;4961883;28;20288;-68
2023/05/07 08:42:56;;;;;;;3.88;2.00;;;20.00;62.20;;;;;;4971769;28;20204;-67
2023/05/07 08:45:23;;;;;;;2.80;1.80;;;20.00;62.20;;;;;;4955454;28;20205;-68
2023/05/07 08:47:58;;;;;;;2.20;2.00;;;20.00;62.30;;;;;;4955757;28;20197;-67
2023/05/07 08:50:28;;;;;;;3.15;1.88;;;20.00;62.20;;;;;;4939993;28;20216;-68
2023/05/07 08:52:56;;;;;;;2.10;1.90;;;20.00;62.40;;;;;;4955940;28;20566;-67
2023/05/07 08:55:23;;;;;;;2.50;2.10;;;20.00;62.40;;;;;;4939360;28;20229;-67
2023/05/07 08:57:52;;;;;;;2.15;1.95;;;20.00;62.40;;;;;;4971628;28;20570;-68
2023/05/07 09:00:18;;;;;;;3.05;2.03;;;20.00;62.30;;;;;;4955836;28;20200;-67
2023/05/07 09:02:49;;;;;;;2.67;1.73;;;20.10;62.50;;;;;;4939736;28;20192;-68
2023/05/07 09:05:15;;;;;;;2.28;2.03;;;20.00;62.30;;;;;;4940980;28;20233;-67
2023/05/07 09:07:41;;;;;;;3.40;1.85;;;20.10;62.40;;;;;;4955749;28;20193;-68
2023/05/07 09:10:08;;;;;;;2.40;2.00;;;20.10;62.40;;;;;;4959345;28;20264;-67
2023/05/07 09:12:36;;;;;;;6.57;1.92;;;20.10;62.40;;;;;;4959404;28;20185;-67
2023/05/07 09:15:05;;;;;;;2.90;1.83;;;20.10;62.40;;;;;;4943262;28;20228;-67
2023/05/07 09:17:32;;;;;;;2.00;1.75;;;20.10;62.50;;;;;;4943592;28;20182;-67
2023/05/07 09:20:04;;;;;;;2.83;1.75;;;20.10;62.50;;;;;;4959261;28;20197;-67
2023/05/07 09:22:38;;;;;;;1.92;1.73;;;20.10;62.40;;;;;;4980140;28;20195;-68
2023/05/07 09:25:08;;;;;;;4.28;2.22;;;20.10;62.40;;;;;;4956014;28;20296;-67
2023/05/07 09:27:36;;;;;;;3.25;1.90;;;20.10;62.60;;;;;;4959291;28;20190;-68
2023/05/07 09:30:09;;;;;;;2.75;1.77;;;20.10;62.50;;;;;;4958990;28;20768;-67
2023/05/07 09:32:39;;;;;;;2.70;1.70;;;20.10;62.60;;;;;;4948992;28;20182;-68
2023/05/07 09:35:18;;;;;;;2.28;2.00;;;20.10;62.60;;;;;;4956304;28;20210;-68
2023/05/07 09:37:48;;;;;;;2.20;1.83;;;20.10;62.70;;;;;;4971955;28;20186;-68
2023/05/07 09:40:27;;;;;;;2.08;1.60;;;20.10;62.60;;;;;;4956940;28;20277;-68
2023/05/07 09:42:55;;;;;;;2.13;1.70;;;20.10;62.90;;;;;;4958997;28;20217;-67
2023/05/07 09:45:26;;;;;;;3.05;1.77;;;20.10;62.70;;;;;;4958213;28;20233;-68
2023/05/07 09:47:58;;;;;;;3.00;2.10;;;20.10;62.60;;;;;;4942778;28;20288;-68
2023/05/07 09:50:35;;;;;;;1.92;1.83;;;20.10;62.60;;;;;;4958562;28;20220;-68
2023/05/07 09:53:04;;;;;;;1.77;1.52;;;20.10;62.60;;;;;;4958634;28;20272;-68
2023/05/07 09:55:31;;;;;;;2.28;2.08;;;20.10;62.60;;;;;;4963074;28;20214;-68
2023/05/07 09:57:59;;;;;;;1.95;1.85;;;20.10;62.60;;;;;;4971436;28;20552;-67
2023/05/07 10:00:28;;;;;;;3.17;1.77;;;20.10;62.60;;;;;;4958200;28;20190;-68
2023/05/07 10:03:04;;;;;;;2.00;1.90;;;20.10;62.70;;;;;;4958411;28;20190;-68
2023/05/07 10:05:44;;;;;;;7.03;2.83;;;20.10;62.70;;;;;;4951865;28;20233;-68
2023/05/07 10:08:11;;;;;;;5.40;2.42;;;20.20;63.80;;;;;;4971632;28;20197;-69
2023/05/07 10:10:39;;;;;;;3.97;2.15;;;20.30;64.00;;;;;;4977674;28;20701;-69
2023/05/07 10:13:10;;;;;;;7.18;2.35;;;20.30;64.90;;;;;;4958238;28;20186;-67
2023/05/07 10:15:38;;;;;;;4.65;2.63;;;20.40;71.10;;;;;;4942316;28;20278;-68
2023/05/07 10:18:07;;;;;;;7.45;2.58;;;20.40;65.70;;;;;;4966277;28;20272;-68
2023/05/07 10:20:36;;;;;;;10.35;2.60;;;20.40;65.90;;;;;;4973406;28;20197;-68
2023/05/07 10:23:05;;;;;;;4.38;2.22;;;20.40;66.80;;;;;;4954609;28;20280;-68
2023/05/07 10:25:38;;;;;;;5.95;2.85;;;20.40;66.30;;;;;;4958857;28;20209;-67
2023/05/07 10:28:19;;;;;;;4.35;2.35;;;20.40;66.40;;;;;;4957924;28;20281;-67
2023/05/07 10:31:17;;;;;;;5.18;2.15;;;20.40;66.40;;;;;;4957920;28;20216;-68
2023/05/07 10:33:51;;;;;;;4.68;2.13;;;20.40;66.30;;;;;;4952184;28;20190;-68
2023/05/07 10:36:21;;;;;;;4.22;2.15;;;20.50;66.50;;;;;;4958074;28;20193;-68
2023/05/07 10:38:47;;;;;;;3.58;2.40;;;20.50;66.40;;;;;;4958045;28;20194;-68
2023/05/07 10:41:15;;;;;;;3.90;2.05;;;20.40;66.30;;;;;;4958051;28;20201;-66
2023/05/07 10:43:45;;;;;;;4.28;1.88;;;20.40;66.30;;;;;;4957659;28;20260;-68
2023/05/07 10:46:20;;;;;;;4.30;1.98;;;20.50;66.30;;;;;;4957372;28;20687;-68
2023/05/07 10:49:05;;;;;;;5.80;2.42;;;20.50;66.30;;;;;;4955556;28;20190;-69
2023/05/07 10:51:39;;;;;;;3.58;2.15;;;20.50;66.30;;;;;;4965603;28;20214;-67
2023/05/07 10:54:15;;;;;;;3.53;2.20;;;20.50;66.20;;;;;;4973282;28;20217;-67
2023/05/07 10:56:50;;;;;;;5.03;2.15;;;20.50;66.20;;;;;;4974720;28;20186;-68
2023/05/07 10:59:20;;;;;;;3.40;2.00;;;20.50;66.20;;;;;;4981619;28;20669;-68
2023/05/07 11:01:55;;;;;;;3.92;2.13;;;20.50;66.10;;;;;;4957464;28;20221;-68
2023/05/07 11:04:34;;;;;;;3.33;2.17;;;20.50;66.10;;;;;;4942578;28;20209;-67
2023/05/07 11:07:30;;;;;;;5.00;2.33;;;20.50;65.80;;;;;;4971488;28;20288;-67
2023/05/07 11:10:05;;;;;;;3.25;1.88;;;20.40;65.80;;;;;;4957065;28;20245;-67
2023/05/07 11:12:41;;;;;;;2.72;2.00;;;20.40;65.90;;;;;;4957185;28;20186;-68
2023/05/07 11:15:15;;;;;;;2.92;2.00;;;20.30;65.90;;;;;;4973427;28;20264;-67
2023/05/07 11:17:59;;;;;;;2.60;1.90;;;20.30;66.00;;;;;;4973474;28;20192;-67
2023/05/07 11:20:58;;;;;;;3.10;2.05;;;20.30;66.00;;;;;;4956330;28;20185;-67
2023/05/07 11:23:37;;;;;;;3.97;2.13;;;20.30;66.00;;;;;;4957241;28;20196;-68
2023/05/07 11:26:16;;;;;;;4.40;2.10;;;20.20;65.80;;;;;;4942591;28;20193;-68
2023/05/07 11:28:43;;;;;;;7.15;2.30;;;20.20;65.80;;;;;;4941594;28;20185;-68
2023/05/07 11:31:11;;;;;;;3.67;1.92;;;20.20;65.70;;;;;;4958743;28;20224;-67
2023/05/07 11:33:38;;;;;;;4.30;2.10;;;20.20;65.70;;;;;;4957397;28;20190;-67
2023/05/07 11:36:08;;;;;;;2.33;1.92;;;20.20;65.60;;;;;;4956302;28;20264;-67
2023/05/07 11:38:40;;;;;;;3.72;2.20;;;20.20;65.50;;;;;;4941739;28;20216;-67
2023/05/07 11:41:07;;;;;;;2.58;1.90;;;20.20;65.40;;;;;;4955979;28;20229;-68
2023/05/07 11:43:35;;;;;;;2.53;1.90;;;20.20;65.40;;;;;;4956412;28;20186;-67
2023/05/07 11:46:12;;;;;;;2.85;2.45;;;20.20;65.30;;;;;;4973684;28;20214;-68
2023/05/07 11:48:38;;;;;;;4.32;2.03;;;20.20;65.10;;;;;;4956664;28;20224;-67
2023/05/07 11:51:06;;;;;;;2.58;1.92;;;20.20;65.20;;;;;;4956366;28;20209;-68
2023/05/07 11:53:40;;;;;;;2.60;2.08;;;20.20;65.10;;;;;;4973567;28;20670;-67
2023/05/07 11:56:13;;;;;;;2.00;1.80;;;20.20;65.10;;;;;;4969101;28;20229;-67
2023/05/07 11:58:41;;;;;;;1.95;1.85;;;20.20;65.10;;;;;;4940412;28;20189;-67
2023/05/07 12:01:12;;;;;;;3.35;1.92;;;20.20;65.00;;;;;;4969159;28;20194;-67
2023/05/07 12:03:42;;;;;;;2.47;2.20;;;20.20;64.90;;;;;;4948545;28;20196;-68
2023/05/07 12:06:09;;;;;;;2.63;2.20;;;20.20;64.80;;;;;;4955804;28;20217;-68
2023/05/07 12:08:40;;;;;;;2.00;1.90;;;20.20;64.80;;;;;;4956114;28;20625;-69
2023/05/07 12:11:14;;;;;;;1.98;1.83;;;20.20;64.80;;;;;;4973464;28;20228;-69
2023/05/07 12:13:41;;;;;;;3.63;1.90;;;20.20;64.80;;;;;;4967353;28;20182;-69
2023/05/07 12:16:07;;;;;;;2.13;2.00;;;20.20;64.80;;;;;;4951785;28;20607;-68
2023/05/07 12:18:36;;;;;;;2.55;2.03;;;20.20;64.80;;;;;;4939747;28;20197;-68
2023/05/07 12:21:03;;;;;;;2.85;1.73;;;20.20;64.80;;;;;;4973176;28;20663;-69
2023/05/07 12:23:30;;;;;;;2.45;2.13;;;20.20;64.90;;;;;;4955769;28;20631;-69
2023/05/07 12:25:56;;;;;;;2.65;2.45;;;20.20;64.80;;;;;;4956090;28;20618;-69
2023/05/07 12:28:21;;;;;;;2.70;2.40;;;20.20;64.80;;;;;;4955945;28;20193;-68
2023/05/07 12:30:51;;;;;;;2.78;2.05;;;20.20;64.80;;;;;;4972215;28;20209;-69
2023/05/07 12:33:23;;;;;;;3.25;1.90;;;20.20;64.80;;;;;;4956155;28;20190;-68
2023/05/07 12:35:49;;;;;;;3.00;2.20;;;20.20;64.70;;;;;;4961401;28;20280;-68
2023/05/07 12:38:17;;;;;;;3.15;2.28;;;20.20;64.60;;;;;;4955802;28;20200;-67
2023/05/07 12:40:50;;;;;;;2.13;2.00;;;20.20;64.60;;;;;;4940304;28;20273;-68
2023/05/07 12:43:24;;;;;;;2.30;2.15;;;20.20;64.60;;;;;;4956732;28;20193;-68
2023/05/07 12:45:51;;;;;;;2.28;2.08;;;20.20;64.50;;;;;;4959622;28;20205;-69
2023/05/07 12:48:19;;;;;;;2.60;2.40;;;20.20;64.50;;;;;;4987962;28;20190;-68
2023/05/07 12:50:48;;;;;;;2.33;2.13;;;20.20;64.50;;;;;;4959718;28;20244;-69
2023/05/07 12:53:14;;;;;;;2.40;2.30;;;20.20;64.50;;;;;;4959563;28;20232;-67